sensor_id;sensor_type;location;lat;lon;timestamp;P1;durP1;ratioP1;P2;durP2;ratioP2
4084;SDS011;2057;50.858;6.572;2023-10-13T00:01:59;13.27;;;6.07;;
4084;SDS011;2057;50.858;6.572;2023-10-13T00:04:29;9.07;;;5.50;;
4084;SDS011;2057;50.858;6.572;2023-10-13T00:06:57;10.67;;;5.93;;
4084;SDS011;2057;50.858;6.572;2023-10-13T00:09:24;9.90;;;6.43;;
4084;SDS011;2057;50.858;6.572;2023-10-13T00:11:51;9.37;;;5.50;;
4084;SDS011;2057;50.858;6.572;2023-10-13T00:14:18;13.70;;;6.90;;
4084;SDS011;2057;50.858;6.572;2023-10-13T00:16:46;13.10;;;6.40;;
4084;SDS011;2057;50.858;6.572;2023-10-13T00:19:29;10.23;;;5.50;;
4084;SDS011;2057;50.858;6.572;2023-10-13T00:22:12;8.20;;;6.17;;
4084;SDS011;2057;50.858;6.572;2023-10-13T00:24:42;14.83;;;5.20;;
4084;SDS011;2057;50.858;6.572;2023-10-13T00:27:09;8.23;;;5.63;;
4084;SDS011;2057;50.858;6.572;2023-10-13T00:29:49;9.63;;;5.53;;
4084;SDS011;2057;50.858;6.572;2023-10-13T00:32:15;9.03;;;6.07;;
4084;SDS011;2057;50.858;6.572;2023-10-13T00:34:45;11.97;;;6.40;;
4084;SDS011;2057;50.858;6.572;2023-10-13T00:37:10;12.83;;;5.83;;
4084;SDS011;2057;50.858;6.572;2023-10-13T00:39:38;13.93;;;7.17;;
4084;SDS011;2057;50.858;6.572;2023-10-13T00:42:09;11.17;;;6.50;;
4084;SDS011;2057;50.858;6.572;2023-10-13T00:44:42;12.93;;;6.20;;
4084;SDS011;2057;50.858;6.572;2023-10-13T00:47:15;10.73;;;6.53;;
4084;SDS011;2057;50.858;6.572;2023-10-13T00:50:03;14.90;;;7.20;;
4084;SDS011;2057;50.858;6.572;2023-10-13T00:52:30;10.33;;;6.87;;
4084;SDS011;2057;50.858;6.572;2023-10-13T00:54:59;11.93;;;6.53;;
4084;SDS011;2057;50.858;6.572;2023-10-13T00:57:26;13.63;;;6.33;;
4084;SDS011;2057;50.858;6.572;2023-10-13T00:59:54;17.80;;;6.13;;
4084;SDS011;2057;50.858;6.572;2023-10-13T01:02:20;16.03;;;6.00;;
4084;SDS011;2057;50.858;6.572;2023-10-13T01:05:04;9.47;;;6.23;;
4084;SDS011;2057;50.858;6.572;2023-10-13T01:07:34;12.23;;;7.27;;
4084;SDS011;2057;50.858;6.572;2023-10-13T01:10:02;11.20;;;6.50;;
4084;SDS011;2057;50.858;6.572;2023-10-13T01:12:29;9.63;;;5.77;;
4084;SDS011;2057;50.858;6.572;2023-10-13T01:14:56;9.13;;;6.30;;
4084;SDS011;2057;50.858;6.572;2023-10-13T01:17:22;11.57;;;6.20;;
4084;SDS011;2057;50.858;6.572;2023-10-13T01:19:48;13.40;;;6.27;;
4084;SDS011;2057;50.858;6.572;2023-10-13T01:22:14;15.23;;;7.33;;
4084;SDS011;2057;50.858;6.572;2023-10-13T01:24:42;9.90;;;6.70;;
4084;SDS011;2057;50.858;6.572;2023-10-13T01:27:08;9.70;;;5.43;;
4084;SDS011;2057;50.858;6.572;2023-10-13T01:29:44;13.30;;;7.60;;
4084;SDS011;2057;50.858;6.572;2023-10-13T01:32:19;17.37;;;5.57;;
4084;SDS011;2057;50.858;6.572;2023-10-13T01:34:45;7.30;;;5.90;;
4084;SDS011;2057;50.858;6.572;2023-10-13T01:37:11;8.13;;;6.40;;
4084;SDS011;2057;50.858;6.572;2023-10-13T01:39:36;14.63;;;6.57;;
4084;SDS011;2057;50.858;6.572;2023-10-13T01:42:02;7.30;;;6.50;;
4084;SDS011;2057;50.858;6.572;2023-10-13T01:44:27;13.07;;;6.50;;
4084;SDS011;2057;50.858;6.572;2023-10-13T01:46:55;13.93;;;6.77;;
4084;SDS011;2057;50.858;6.572;2023-10-13T01:49:31;8.30;;;5.43;;
4084;SDS011;2057;50.858;6.572;2023-10-13T01:52:12;8.13;;;6.30;;
4084;SDS011;2057;50.858;6.572;2023-10-13T01:54:40;12.30;;;7.33;;
4084;SDS011;2057;50.858;6.572;2023-10-13T01:57:10;12.33;;;6.63;;
4084;SDS011;2057;50.858;6.572;2023-10-13T01:59:43;11.50;;;7.63;;
4084;SDS011;2057;50.858;6.572;2023-10-13T02:02:09;15.53;;;7.93;;
4084;SDS011;2057;50.858;6.572;2023-10-13T02:04:38;9.00;;;6.33;;
4084;SDS011;2057;50.858;6.572;2023-10-13T02:07:14;10.77;;;7.10;;
4084;SDS011;2057;50.858;6.572;2023-10-13T02:09:40;12.00;;;6.20;;
4084;SDS011;2057;50.858;6.572;2023-10-13T02:12:07;10.23;;;7.50;;
4084;SDS011;2057;50.858;6.572;2023-10-13T02:14:34;12.10;;;7.40;;
4084;SDS011;2057;50.858;6.572;2023-10-13T02:17:02;20.80;;;8.50;;
4084;SDS011;2057;50.858;6.572;2023-10-13T02:19:41;11.47;;;7.07;;
4084;SDS011;2057;50.858;6.572;2023-10-13T02:22:11;10.33;;;7.17;;
4084;SDS011;2057;50.858;6.572;2023-10-13T02:24:49;20.10;;;8.80;;
4084;SDS011;2057;50.858;6.572;2023-10-13T02:27:17;8.80;;;6.80;;
4084;SDS011;2057;50.858;6.572;2023-10-13T02:29:42;11.67;;;6.77;;
4084;SDS011;2057;50.858;6.572;2023-10-13T02:32:11;10.83;;;8.30;;
4084;SDS011;2057;50.858;6.572;2023-10-13T02:34:48;25.23;;;8.47;;
4084;SDS011;2057;50.858;6.572;2023-10-13T02:37:13;10.17;;;6.80;;
4084;SDS011;2057;50.858;6.572;2023-10-13T02:39:39;17.07;;;7.40;;
4084;SDS011;2057;50.858;6.572;2023-10-13T02:42:08;9.27;;;6.90;;
4084;SDS011;2057;50.858;6.572;2023-10-13T02:44:41;7.90;;;6.47;;
4084;SDS011;2057;50.858;6.572;2023-10-13T02:47:11;13.23;;;7.07;;
4084;SDS011;2057;50.858;6.572;2023-10-13T02:49:39;14.50;;;6.60;;
4084;SDS011;2057;50.858;6.572;2023-10-13T02:52:08;10.77;;;6.57;;
4084;SDS011;2057;50.858;6.572;2023-10-13T02:54:36;11.53;;;7.10;;
4084;SDS011;2057;50.858;6.572;2023-10-13T02:57:08;24.30;;;7.73;;
4084;SDS011;2057;50.858;6.572;2023-10-13T02:59:33;10.30;;;7.50;;
4084;SDS011;2057;50.858;6.572;2023-10-13T03:02:05;13.73;;;6.83;;
4084;SDS011;2057;50.858;6.572;2023-10-13T03:04:50;12.10;;;6.83;;
4084;SDS011;2057;50.858;6.572;2023-10-13T03:07:24;13.63;;;7.73;;
4084;SDS011;2057;50.858;6.572;2023-10-13T03:09:53;17.40;;;6.87;;
4084;SDS011;2057;50.858;6.572;2023-10-13T03:12:23;12.17;;;6.97;;
4084;SDS011;2057;50.858;6.572;2023-10-13T03:14:49;11.63;;;7.27;;
4084;SDS011;2057;50.858;6.572;2023-10-13T03:17:21;15.47;;;6.77;;
4084;SDS011;2057;50.858;6.572;2023-10-13T03:19:58;11.87;;;6.53;;
4084;SDS011;2057;50.858;6.572;2023-10-13T03:22:26;11.27;;;7.87;;
4084;SDS011;2057;50.858;6.572;2023-10-13T03:24:58;15.87;;;6.87;;
4084;SDS011;2057;50.858;6.572;2023-10-13T03:27:32;14.50;;;7.93;;
4084;SDS011;2057;50.858;6.572;2023-10-13T03:30:23;16.13;;;7.27;;
4084;SDS011;2057;50.858;6.572;2023-10-13T03:32:59;10.80;;;5.67;;
4084;SDS011;2057;50.858;6.572;2023-10-13T03:35:26;12.60;;;6.10;;
4084;SDS011;2057;50.858;6.572;2023-10-13T03:38:02;18.73;;;7.37;;
4084;SDS011;2057;50.858;6.572;2023-10-13T03:40:28;14.83;;;6.90;;
4084;SDS011;2057;50.858;6.572;2023-10-13T03:42:54;10.40;;;6.70;;
4084;SDS011;2057;50.858;6.572;2023-10-13T03:45:31;14.20;;;6.87;;
4084;SDS011;2057;50.858;6.572;2023-10-13T03:48:03;10.00;;;6.70;;
4084;SDS011;2057;50.858;6.572;2023-10-13T03:50:38;11.53;;;6.50;;
4084;SDS011;2057;50.858;6.572;2023-10-13T03:53:23;11.57;;;6.90;;
4084;SDS011;2057;50.858;6.572;2023-10-13T03:55:50;12.93;;;6.13;;
4084;SDS011;2057;50.858;6.572;2023-10-13T03:58:32;14.43;;;7.20;;
4084;SDS011;2057;50.858;6.572;2023-10-13T04:01:03;7.93;;;6.73;;
4084;SDS011;2057;50.858;6.572;2023-10-13T04:03:28;18.60;;;6.80;;
4084;SDS011;2057;50.858;6.572;2023-10-13T04:06:00;11.27;;;6.00;;
4084;SDS011;2057;50.858;6.572;2023-10-13T04:08:31;12.20;;;6.13;;
4084;SDS011;2057;50.858;6.572;2023-10-13T04:11:13;11.07;;;6.00;;
4084;SDS011;2057;50.858;6.572;2023-10-13T04:13:57;8.50;;;4.97;;
4084;SDS011;2057;50.858;6.572;2023-10-13T04:16:48;9.80;;;5.80;;
4084;SDS011;2057;50.858;6.572;2023-10-13T04:19:19;20.43;;;6.73;;
4084;SDS011;2057;50.858;6.572;2023-10-13T04:21:54;18.27;;;5.77;;
4084;SDS011;2057;50.858;6.572;2023-10-13T04:24:23;9.93;;;5.80;;
4084;SDS011;2057;50.858;6.572;2023-10-13T04:27:04;13.43;;;5.60;;
4084;SDS011;2057;50.858;6.572;2023-10-13T04:29:36;14.73;;;5.50;;
4084;SDS011;2057;50.858;6.572;2023-10-13T04:32:13;13.07;;;5.80;;
4084;SDS011;2057;50.858;6.572;2023-10-13T04:34:40;15.03;;;5.77;;
4084;SDS011;2057;50.858;6.572;2023-10-13T04:37:13;11.60;;;4.97;;
4084;SDS011;2057;50.858;6.572;2023-10-13T04:39:53;12.60;;;5.97;;
4084;SDS011;2057;50.858;6.572;2023-10-13T04:42:24;6.33;;;5.10;;
4084;SDS011;2057;50.858;6.572;2023-10-13T04:45:05;7.10;;;4.90;;
4084;SDS011;2057;50.858;6.572;2023-10-13T04:47:52;14.33;;;6.00;;
4084;SDS011;2057;50.858;6.572;2023-10-13T04:50:22;12.10;;;4.80;;
4084;SDS011;2057;50.858;6.572;2023-10-13T04:52:55;13.60;;;4.70;;
4084;SDS011;2057;50.858;6.572;2023-10-13T04:55:27;8.23;;;4.97;;
4084;SDS011;2057;50.858;6.572;2023-10-13T04:58:13;10.60;;;5.13;;
4084;SDS011;2057;50.858;6.572;2023-10-13T05:01:01;16.40;;;6.60;;
4084;SDS011;2057;50.858;6.572;2023-10-13T05:03:46;19.87;;;5.00;;
4084;SDS011;2057;50.858;6.572;2023-10-13T05:06:32;17.00;;;5.20;;
4084;SDS011;2057;50.858;6.572;2023-10-13T05:09:07;19.10;;;5.93;;
4084;SDS011;2057;50.858;6.572;2023-10-13T05:11:51;10.30;;;5.30;;
4084;SDS011;2057;50.858;6.572;2023-10-13T05:14:35;12.23;;;5.40;;
4084;SDS011;2057;50.858;6.572;2023-10-13T05:17:23;17.00;;;5.70;;
4084;SDS011;2057;50.858;6.572;2023-10-13T05:20:08;12.43;;;5.47;;
4084;SDS011;2057;50.858;6.572;2023-10-13T05:22:52;17.17;;;5.60;;
4084;SDS011;2057;50.858;6.572;2023-10-13T05:25:37;12.00;;;4.83;;
4084;SDS011;2057;50.858;6.572;2023-10-13T05:28:22;18.67;;;5.47;;
4084;SDS011;2057;50.858;6.572;2023-10-13T05:31:06;9.63;;;4.73;;
4084;SDS011;2057;50.858;6.572;2023-10-13T05:33:53;16.77;;;5.77;;
4084;SDS011;2057;50.858;6.572;2023-10-13T05:36:37;14.63;;;5.50;;
4084;SDS011;2057;50.858;6.572;2023-10-13T05:39:21;13.93;;;5.07;;
4084;SDS011;2057;50.858;6.572;2023-10-13T05:42:06;19.80;;;5.93;;
4084;SDS011;2057;50.858;6.572;2023-10-13T05:44:50;15.33;;;5.77;;
4084;SDS011;2057;50.858;6.572;2023-10-13T05:47:41;12.03;;;4.77;;
4084;SDS011;2057;50.858;6.572;2023-10-13T05:50:07;18.53;;;6.73;;
4084;SDS011;2057;50.858;6.572;2023-10-13T05:52:45;16.83;;;5.50;;
4084;SDS011;2057;50.858;6.572;2023-10-13T05:55:21;18.83;;;6.50;;
4084;SDS011;2057;50.858;6.572;2023-10-13T05:58:08;15.37;;;5.77;;
4084;SDS011;2057;50.858;6.572;2023-10-13T06:00:52;23.33;;;5.67;;
4084;SDS011;2057;50.858;6.572;2023-10-13T06:03:37;16.33;;;5.77;;
4084;SDS011;2057;50.858;6.572;2023-10-13T06:06:21;16.07;;;6.00;;
4084;SDS011;2057;50.858;6.572;2023-10-13T06:09:04;24.70;;;5.87;;
4084;SDS011;2057;50.858;6.572;2023-10-13T06:11:48;33.27;;;7.27;;
4084;SDS011;2057;50.858;6.572;2023-10-13T06:14:34;24.53;;;6.70;;
4084;SDS011;2057;50.858;6.572;2023-10-13T06:17:18;21.20;;;6.13;;
4084;SDS011;2057;50.858;6.572;2023-10-13T06:20:02;22.97;;;6.20;;
4084;SDS011;2057;50.858;6.572;2023-10-13T06:22:47;31.33;;;5.70;;
4084;SDS011;2057;50.858;6.572;2023-10-13T06:25:31;20.53;;;6.27;;
4084;SDS011;2057;50.858;6.572;2023-10-13T06:28:15;17.90;;;6.70;;
4084;SDS011;2057;50.858;6.572;2023-10-13T06:30:59;33.00;;;7.40;;
4084;SDS011;2057;50.858;6.572;2023-10-13T06:33:37;11.07;;;6.40;;
4084;SDS011;2057;50.858;6.572;2023-10-13T06:36:09;18.57;;;6.57;;
4084;SDS011;2057;50.858;6.572;2023-10-13T06:38:37;23.73;;;8.13;;
4084;SDS011;2057;50.858;6.572;2023-10-13T06:41:06;25.03;;;7.30;;
4084;SDS011;2057;50.858;6.572;2023-10-13T06:43:32;28.67;;;7.20;;
4084;SDS011;2057;50.858;6.572;2023-10-13T06:46:11;21.50;;;7.17;;
4084;SDS011;2057;50.858;6.572;2023-10-13T06:48:48;24.53;;;7.27;;
4084;SDS011;2057;50.858;6.572;2023-10-13T06:51:18;28.73;;;7.07;;
4084;SDS011;2057;50.858;6.572;2023-10-13T06:53:46;19.63;;;7.50;;
4084;SDS011;2057;50.858;6.572;2023-10-13T06:56:16;17.50;;;8.00;;
4084;SDS011;2057;50.858;6.572;2023-10-13T06:58:43;13.60;;;6.30;;
4084;SDS011;2057;50.858;6.572;2023-10-13T07:01:11;27.10;;;7.03;;
4084;SDS011;2057;50.858;6.572;2023-10-13T07:03:44;21.70;;;7.23;;
4084;SDS011;2057;50.858;6.572;2023-10-13T07:06:14;29.83;;;7.40;;
4084;SDS011;2057;50.858;6.572;2023-10-13T07:08:44;25.13;;;8.50;;
4084;SDS011;2057;50.858;6.572;2023-10-13T07:11:16;28.00;;;7.30;;
4084;SDS011;2057;50.858;6.572;2023-10-13T07:13:58;28.63;;;6.73;;
4084;SDS011;2057;50.858;6.572;2023-10-13T07:16:24;16.97;;;7.10;;
4084;SDS011;2057;50.858;6.572;2023-10-13T07:18:49;32.37;;;6.70;;
4084;SDS011;2057;50.858;6.572;2023-10-13T07:21:18;23.47;;;7.60;;
4084;SDS011;2057;50.858;6.572;2023-10-13T07:23:49;25.27;;;6.87;;
4084;SDS011;2057;50.858;6.572;2023-10-13T07:26:25;27.53;;;8.13;;
4084;SDS011;2057;50.858;6.572;2023-10-13T07:28:51;18.87;;;6.73;;
4084;SDS011;2057;50.858;6.572;2023-10-13T07:31:17;23.27;;;7.43;;
4084;SDS011;2057;50.858;6.572;2023-10-13T07:33:46;30.03;;;7.10;;
4084;SDS011;2057;50.858;6.572;2023-10-13T07:36:12;21.50;;;7.23;;
4084;SDS011;2057;50.858;6.572;2023-10-13T07:38:55;29.57;;;6.07;;
4084;SDS011;2057;50.858;6.572;2023-10-13T07:41:47;26.70;;;6.83;;
4084;SDS011;2057;50.858;6.572;2023-10-13T07:44:17;19.30;;;6.53;;
4084;SDS011;2057;50.858;6.572;2023-10-13T07:46:45;23.30;;;6.50;;
4084;SDS011;2057;50.858;6.572;2023-10-13T07:49:14;38.57;;;6.80;;
4084;SDS011;2057;50.858;6.572;2023-10-13T07:51:41;19.17;;;6.03;;
4084;SDS011;2057;50.858;6.572;2023-10-13T07:54:12;19.90;;;6.90;;
4084;SDS011;2057;50.858;6.572;2023-10-13T07:56:40;20.90;;;6.67;;
4084;SDS011;2057;50.858;6.572;2023-10-13T07:59:05;27.30;;;6.70;;
4084;SDS011;2057;50.858;6.572;2023-10-13T08:01:34;29.07;;;7.60;;
4084;SDS011;2057;50.858;6.572;2023-10-13T08:04:00;22.43;;;6.53;;
4084;SDS011;2057;50.858;6.572;2023-10-13T08:06:36;14.83;;;6.83;;
4084;SDS011;2057;50.858;6.572;2023-10-13T08:09:04;14.57;;;5.97;;
4084;SDS011;2057;50.858;6.572;2023-10-13T08:11:33;21.07;;;6.70;;
4084;SDS011;2057;50.858;6.572;2023-10-13T08:14:05;22.23;;;6.40;;
4084;SDS011;2057;50.858;6.572;2023-10-13T08:16:37;19.90;;;6.80;;
4084;SDS011;2057;50.858;6.572;2023-10-13T08:19:23;28.63;;;6.57;;
4084;SDS011;2057;50.858;6.572;2023-10-13T08:21:52;13.40;;;6.73;;
4084;SDS011;2057;50.858;6.572;2023-10-13T08:24:39;18.70;;;5.03;;
4084;SDS011;2057;50.858;6.572;2023-10-13T08:27:05;13.40;;;6.60;;
4084;SDS011;2057;50.858;6.572;2023-10-13T08:29:44;22.83;;;6.50;;
4084;SDS011;2057;50.858;6.572;2023-10-13T08:32:29;30.40;;;7.47;;
4084;SDS011;2057;50.858;6.572;2023-10-13T08:34:58;19.77;;;7.73;;
4084;SDS011;2057;50.858;6.572;2023-10-13T08:37:33;12.67;;;7.00;;
4084;SDS011;2057;50.858;6.572;2023-10-13T08:40:11;30.87;;;7.70;;
4084;SDS011;2057;50.858;6.572;2023-10-13T08:42:56;12.47;;;6.60;;
4084;SDS011;2057;50.858;6.572;2023-10-13T08:45:27;21.40;;;7.87;;
4084;SDS011;2057;50.858;6.572;2023-10-13T08:47:54;10.57;;;6.67;;
4084;SDS011;2057;50.858;6.572;2023-10-13T08:50:36;23.20;;;8.43;;
4084;SDS011;2057;50.858;6.572;2023-10-13T08:53:27;17.13;;;8.30;;
4084;SDS011;2057;50.858;6.572;2023-10-13T08:55:57;29.47;;;8.17;;
4084;SDS011;2057;50.858;6.572;2023-10-13T08:58:35;20.10;;;7.67;;
4084;SDS011;2057;50.858;6.572;2023-10-13T09:01:27;18.37;;;7.70;;
4084;SDS011;2057;50.858;6.572;2023-10-13T09:04:06;26.70;;;7.87;;
4084;SDS011;2057;50.858;6.572;2023-10-13T09:12:15;17.07;;;8.30;;
4084;SDS011;2057;50.858;6.572;2023-10-13T09:14:53;16.30;;;7.67;;
4084;SDS011;2057;50.858;6.572;2023-10-13T09:17:25;15.40;;;7.17;;
4084;SDS011;2057;50.858;6.572;2023-10-13T09:20:06;24.17;;;7.27;;
4084;SDS011;2057;50.858;6.572;2023-10-13T09:22:54;25.63;;;8.13;;
4084;SDS011;2057;50.858;6.572;2023-10-13T09:30:47;13.00;;;7.23;;
4084;SDS011;2057;50.858;6.572;2023-10-13T09:33:22;22.67;;;8.70;;
4084;SDS011;2057;50.858;6.572;2023-10-13T09:36:15;24.70;;;9.40;;
4084;SDS011;2057;50.858;6.572;2023-10-13T09:38:44;18.73;;;9.20;;
4084;SDS011;2057;50.858;6.572;2023-10-13T09:41:14;20.50;;;8.20;;
4084;SDS011;2057;50.858;6.572;2023-10-13T09:43:52;18.10;;;9.43;;
4084;SDS011;2057;50.858;6.572;2023-10-13T09:46:22;17.47;;;8.60;;
4084;SDS011;2057;50.858;6.572;2023-10-13T09:48:54;16.63;;;8.43;;
4084;SDS011;2057;50.858;6.572;2023-10-13T09:51:39;13.80;;;8.03;;
4084;SDS011;2057;50.858;6.572;2023-10-13T09:56:53;18.57;;;8.13;;
4084;SDS011;2057;50.858;6.572;2023-10-13T09:59:34;16.47;;;7.90;;
4084;SDS011;2057;50.858;6.572;2023-10-13T10:02:17;29.43;;;8.40;;
4084;SDS011;2057;50.858;6.572;2023-10-13T10:04:53;34.17;;;9.40;;
4084;SDS011;2057;50.858;6.572;2023-10-13T10:07:27;24.17;;;8.50;;
4084;SDS011;2057;50.858;6.572;2023-10-13T10:09:57;20.93;;;8.37;;
4084;SDS011;2057;50.858;6.572;2023-10-13T10:18:01;16.27;;;8.43;;
4084;SDS011;2057;50.858;6.572;2023-10-13T10:20:28;18.93;;;8.40;;
4084;SDS011;2057;50.858;6.572;2023-10-13T10:23:25;14.53;;;8.20;;
4084;SDS011;2057;50.858;6.572;2023-10-13T10:25:54;35.00;;;8.97;;
4084;SDS011;2057;50.858;6.572;2023-10-13T10:28:36;24.30;;;8.77;;
4084;SDS011;2057;50.858;6.572;2023-10-13T10:31:06;19.20;;;8.60;;
4084;SDS011;2057;50.858;6.572;2023-10-13T10:33:37;25.50;;;8.40;;
4084;SDS011;2057;50.858;6.572;2023-10-13T10:36:04;18.17;;;8.30;;
4084;SDS011;2057;50.858;6.572;2023-10-13T10:38:30;24.83;;;8.90;;
4084;SDS011;2057;50.858;6.572;2023-10-13T10:41:00;21.10;;;7.70;;
4084;SDS011;2057;50.858;6.572;2023-10-13T10:46:08;12.10;;;7.80;;
4084;SDS011;2057;50.858;6.572;2023-10-13T10:48:36;20.30;;;7.80;;
4084;SDS011;2057;50.858;6.572;2023-10-13T10:51:03;21.70;;;7.87;;
4084;SDS011;2057;50.858;6.572;2023-10-13T10:53:33;28.03;;;9.50;;
4084;SDS011;2057;50.858;6.572;2023-10-13T10:56:08;25.33;;;9.17;;
4084;SDS011;2057;50.858;6.572;2023-10-13T10:59:06;29.17;;;8.60;;
4084;SDS011;2057;50.858;6.572;2023-10-13T11:01:42;29.70;;;9.27;;
4084;SDS011;2057;50.858;6.572;2023-10-13T11:04:17;35.77;;;7.53;;
4084;SDS011;2057;50.858;6.572;2023-10-13T11:09:23;22.30;;;8.47;;
4084;SDS011;2057;50.858;6.572;2023-10-13T11:11:51;18.87;;;8.53;;
4084;SDS011;2057;50.858;6.572;2023-10-13T11:16:50;30.57;;;8.50;;
4084;SDS011;2057;50.858;6.572;2023-10-13T11:19:18;19.00;;;8.63;;
4084;SDS011;2057;50.858;6.572;2023-10-13T11:21:53;19.10;;;7.47;;
4084;SDS011;2057;50.858;6.572;2023-10-13T11:24:22;29.83;;;9.30;;
4084;SDS011;2057;50.858;6.572;2023-10-13T11:26:48;22.00;;;8.03;;
4084;SDS011;2057;50.858;6.572;2023-10-13T11:29:19;20.70;;;7.07;;
4084;SDS011;2057;50.858;6.572;2023-10-13T11:31:56;25.50;;;7.97;;
4084;SDS011;2057;50.858;6.572;2023-10-13T11:34:28;12.67;;;7.17;;
4084;SDS011;2057;50.858;6.572;2023-10-13T11:37:04;23.40;;;8.20;;
4084;SDS011;2057;50.858;6.572;2023-10-13T11:39:50;20.00;;;7.67;;
4084;SDS011;2057;50.858;6.572;2023-10-13T11:42:17;20.47;;;7.90;;
4084;SDS011;2057;50.858;6.572;2023-10-13T11:44:43;24.40;;;8.10;;
4084;SDS011;2057;50.858;6.572;2023-10-13T11:47:09;25.37;;;7.37;;
4084;SDS011;2057;50.858;6.572;2023-10-13T11:50:07;24.27;;;7.17;;
4084;SDS011;2057;50.858;6.572;2023-10-13T11:52:33;24.97;;;7.63;;
4084;SDS011;2057;50.858;6.572;2023-10-13T11:54:58;20.10;;;7.40;;
4084;SDS011;2057;50.858;6.572;2023-10-13T11:57:23;22.50;;;7.73;;
4084;SDS011;2057;50.858;6.572;2023-10-13T11:59:49;28.63;;;8.77;;
4084;SDS011;2057;50.858;6.572;2023-10-13T12:02:40;22.87;;;7.33;;
4084;SDS011;2057;50.858;6.572;2023-10-13T12:05:24;12.07;;;6.30;;
4084;SDS011;2057;50.858;6.572;2023-10-13T12:08:02;23.23;;;7.13;;
4084;SDS011;2057;50.858;6.572;2023-10-13T12:10:32;24.63;;;7.57;;
4084;SDS011;2057;50.858;6.572;2023-10-13T12:13:24;33.83;;;8.20;;
4084;SDS011;2057;50.858;6.572;2023-10-13T12:15:50;17.20;;;7.03;;
4084;SDS011;2057;50.858;6.572;2023-10-13T12:18:17;33.23;;;8.30;;
4084;SDS011;2057;50.858;6.572;2023-10-13T12:20:44;28.33;;;7.77;;
4084;SDS011;2057;50.858;6.572;2023-10-13T12:23:11;25.40;;;7.27;;
4084;SDS011;2057;50.858;6.572;2023-10-13T12:25:42;20.73;;;7.37;;
4084;SDS011;2057;50.858;6.572;2023-10-13T12:28:24;19.90;;;7.27;;
4084;SDS011;2057;50.858;6.572;2023-10-13T12:30:53;17.30;;;8.00;;
4084;SDS011;2057;50.858;6.572;2023-10-13T12:33:22;21.23;;;7.17;;
4084;SDS011;2057;50.858;6.572;2023-10-13T12:35:59;28.00;;;7.10;;
4084;SDS011;2057;50.858;6.572;2023-10-13T12:38:38;27.20;;;7.60;;
4084;SDS011;2057;50.858;6.572;2023-10-13T12:41:19;27.93;;;7.40;;
4084;SDS011;2057;50.858;6.572;2023-10-13T12:44:04;18.33;;;6.77;;
4084;SDS011;2057;50.858;6.572;2023-10-13T12:46:49;19.33;;;7.40;;
4084;SDS011;2057;50.858;6.572;2023-10-13T12:49:33;21.03;;;7.13;;
4084;SDS011;2057;50.858;6.572;2023-10-13T12:52:17;30.13;;;8.40;;
4084;SDS011;2057;50.858;6.572;2023-10-13T12:54:45;25.03;;;8.30;;
4084;SDS011;2057;50.858;6.572;2023-10-13T12:59:49;31.37;;;7.53;;
4084;SDS011;2057;50.858;6.572;2023-10-13T13:02:14;31.30;;;7.17;;
4084;SDS011;2057;50.858;6.572;2023-10-13T13:04:43;17.70;;;6.90;;
4084;SDS011;2057;50.858;6.572;2023-10-13T13:07:18;36.63;;;8.07;;
4084;SDS011;2057;50.858;6.572;2023-10-13T13:09:43;25.53;;;6.40;;
4084;SDS011;2057;50.858;6.572;2023-10-13T13:12:10;20.97;;;6.90;;
4084;SDS011;2057;50.858;6.572;2023-10-13T13:14:38;20.40;;;7.90;;
4084;SDS011;2057;50.858;6.572;2023-10-13T13:17:10;22.80;;;7.57;;
4084;SDS011;2057;50.858;6.572;2023-10-13T13:19:37;32.77;;;6.40;;
4084;SDS011;2057;50.858;6.572;2023-10-13T13:22:08;32.13;;;7.93;;
4084;SDS011;2057;50.858;6.572;2023-10-13T13:24:40;35.63;;;6.80;;
4084;SDS011;2057;50.858;6.572;2023-10-13T13:27:13;18.40;;;7.23;;
4084;SDS011;2057;50.858;6.572;2023-10-13T13:29:43;32.73;;;8.00;;
4084;SDS011;2057;50.858;6.572;2023-10-13T13:32:09;34.73;;;7.20;;
4084;SDS011;2057;50.858;6.572;2023-10-13T13:34:53;23.50;;;7.97;;
4084;SDS011;2057;50.858;6.572;2023-10-13T13:37:32;32.37;;;7.53;;
4084;SDS011;2057;50.858;6.572;2023-10-13T13:40:03;26.37;;;7.40;;
4084;SDS011;2057;50.858;6.572;2023-10-13T13:42:43;23.17;;;6.93;;
4084;SDS011;2057;50.858;6.572;2023-10-13T13:45:12;27.00;;;7.17;;
4084;SDS011;2057;50.858;6.572;2023-10-13T13:47:52;27.93;;;6.93;;
4084;SDS011;2057;50.858;6.572;2023-10-13T13:50:19;36.70;;;9.10;;
4084;SDS011;2057;50.858;6.572;2023-10-13T13:52:49;18.70;;;5.70;;
4084;SDS011;2057;50.858;6.572;2023-10-13T13:55:17;26.53;;;7.20;;
4084;SDS011;2057;50.858;6.572;2023-10-13T13:57:46;21.30;;;7.13;;
4084;SDS011;2057;50.858;6.572;2023-10-13T14:00:13;20.47;;;6.50;;
4084;SDS011;2057;50.858;6.572;2023-10-13T14:02:44;24.27;;;7.33;;
4084;SDS011;2057;50.858;6.572;2023-10-13T14:05:15;26.73;;;6.73;;
4084;SDS011;2057;50.858;6.572;2023-10-13T14:07:43;21.90;;;7.03;;
4084;SDS011;2057;50.858;6.572;2023-10-13T14:10:24;36.63;;;7.33;;
4084;SDS011;2057;50.858;6.572;2023-10-13T14:13:18;30.77;;;7.13;;
4084;SDS011;2057;50.858;6.572;2023-10-13T14:15:47;21.63;;;6.50;;
4084;SDS011;2057;50.858;6.572;2023-10-13T14:18:23;24.13;;;6.57;;
4084;SDS011;2057;50.858;6.572;2023-10-13T14:20:55;29.03;;;7.90;;
4084;SDS011;2057;50.858;6.572;2023-10-13T14:23:21;22.40;;;7.43;;
4084;SDS011;2057;50.858;6.572;2023-10-13T14:25:47;16.03;;;6.03;;
4084;SDS011;2057;50.858;6.572;2023-10-13T14:28:13;15.53;;;6.53;;
4084;SDS011;2057;50.858;6.572;2023-10-13T14:30:42;16.23;;;7.10;;
4084;SDS011;2057;50.858;6.572;2023-10-13T14:33:08;21.07;;;6.60;;
4084;SDS011;2057;50.858;6.572;2023-10-13T14:35:36;25.30;;;7.83;;
4084;SDS011;2057;50.858;6.572;2023-10-13T14:38:01;28.70;;;6.63;;
4084;SDS011;2057;50.858;6.572;2023-10-13T14:40:28;17.57;;;6.87;;
4084;SDS011;2057;50.858;6.572;2023-10-13T14:42:54;16.77;;;6.97;;
4084;SDS011;2057;50.858;6.572;2023-10-13T14:45:21;34.33;;;7.87;;
4084;SDS011;2057;50.858;6.572;2023-10-13T14:47:47;25.13;;;6.60;;
4084;SDS011;2057;50.858;6.572;2023-10-13T14:50:14;22.13;;;7.10;;
4084;SDS011;2057;50.858;6.572;2023-10-13T14:52:44;20.53;;;7.07;;
4084;SDS011;2057;50.858;6.572;2023-10-13T14:55:14;16.03;;;5.87;;
4084;SDS011;2057;50.858;6.572;2023-10-13T14:57:46;17.43;;;6.40;;
4084;SDS011;2057;50.858;6.572;2023-10-13T15:00:12;18.23;;;6.10;;
4084;SDS011;2057;50.858;6.572;2023-10-13T15:02:39;19.43;;;7.40;;
4084;SDS011;2057;50.858;6.572;2023-10-13T15:05:08;21.83;;;6.57;;
4084;SDS011;2057;50.858;6.572;2023-10-13T15:07:41;15.03;;;5.93;;
4084;SDS011;2057;50.858;6.572;2023-10-13T15:10:10;10.10;;;6.20;;
4084;SDS011;2057;50.858;6.572;2023-10-13T15:12:40;29.80;;;6.97;;
4084;SDS011;2057;50.858;6.572;2023-10-13T15:15:12;13.37;;;6.60;;
4084;SDS011;2057;50.858;6.572;2023-10-13T15:17:44;13.90;;;6.37;;
4084;SDS011;2057;50.858;6.572;2023-10-13T15:20:10;15.13;;;6.63;;
4084;SDS011;2057;50.858;6.572;2023-10-13T15:22:41;16.37;;;6.57;;
4084;SDS011;2057;50.858;6.572;2023-10-13T15:25:07;16.77;;;6.07;;
4084;SDS011;2057;50.858;6.572;2023-10-13T15:27:51;27.83;;;6.67;;
4084;SDS011;2057;50.858;6.572;2023-10-13T15:30:23;13.97;;;7.60;;
4084;SDS011;2057;50.858;6.572;2023-10-13T15:32:51;20.13;;;6.90;;
4084;SDS011;2057;50.858;6.572;2023-10-13T15:35:20;30.37;;;7.00;;
4084;SDS011;2057;50.858;6.572;2023-10-13T15:37:55;22.17;;;6.30;;
4084;SDS011;2057;50.858;6.572;2023-10-13T15:40:21;16.70;;;7.27;;
4084;SDS011;2057;50.858;6.572;2023-10-13T15:42:48;14.53;;;7.07;;
4084;SDS011;2057;50.858;6.572;2023-10-13T15:45:16;26.80;;;7.27;;
4084;SDS011;2057;50.858;6.572;2023-10-13T15:47:43;21.57;;;6.57;;
4084;SDS011;2057;50.858;6.572;2023-10-13T15:50:11;14.90;;;5.90;;
4084;SDS011;2057;50.858;6.572;2023-10-13T15:52:40;22.83;;;6.53;;
4084;SDS011;2057;50.858;6.572;2023-10-13T15:55:13;15.97;;;5.90;;
4084;SDS011;2057;50.858;6.572;2023-10-13T15:57:40;20.57;;;6.87;;
4084;SDS011;2057;50.858;6.572;2023-10-13T16:00:07;11.00;;;6.00;;
4084;SDS011;2057;50.858;6.572;2023-10-13T16:02:51;12.80;;;5.90;;
4084;SDS011;2057;50.858;6.572;2023-10-13T16:05:19;17.73;;;6.03;;
4084;SDS011;2057;50.858;6.572;2023-10-13T16:07:50;19.53;;;5.90;;
4084;SDS011;2057;50.858;6.572;2023-10-13T16:10:20;14.73;;;6.27;;